createdAt,value
2023-05-05T00:00:25.965Z,69.80
2023-05-05T00:03:30.472Z,69.19
2023-05-05T00:06:33.249Z,69.70
2023-05-05T00:09:36.029Z,69.09
2023-05-05T00:12:38.652Z,69.33
2023-05-05T00:15:46.202Z,69.64
2023-05-05T00:18:48.928Z,69.13
2023-05-05T00:21:51.696Z,69.43
2023-05-05T00:24:54.312Z,69.85
2023-05-05T00:27:57.042Z,70.99
2023-05-05T00:31:00.390Z,70.42
2023-05-05T00:34:03.803Z,70.96
2023-05-05T00:37:06.726Z,71.36
2023-05-05T00:40:10.454Z,71.68
2023-05-05T00:43:13.304Z,71.29
2023-05-05T00:46:24.849Z,71.93
2023-05-05T00:49:27.810Z,72.30
2023-05-05T00:52:30.871Z,73.21
2023-05-05T00:55:35.036Z,72.49
2023-05-05T00:58:37.784Z,72.60
2023-05-05T01:01:40.768Z,72.88
2023-05-05T01:04:43.826Z,72.80
2023-05-05T01:08:05.250Z,73.71
2023-05-05T01:11:32.751Z,73.64
2023-05-05T01:14:41.074Z,73.64
2023-05-05T01:18:07.429Z,73.87
2023-05-05T01:21:16.023Z,73.38
2023-05-05T01:24:40.788Z,74.51
2023-05-05T01:28:11.258Z,73.53
2023-05-05T01:31:35.478Z,71.94
2023-05-05T01:34:42.413Z,71.91
2023-05-05T01:37:49.458Z,71.87
2023-05-05T01:40:59.178Z,74.94
2023-05-05T01:44:03.826Z,73.15
2023-05-05T01:47:06.834Z,73.12
2023-05-05T01:50:10.727Z,73.50
2023-05-05T01:53:14.214Z,73.93
2023-05-05T01:56:19.636Z,74.42
2023-05-05T01:59:24.152Z,74.23
2023-05-05T02:02:28.721Z,74.34
2023-05-05T02:05:33.249Z,74.54
2023-05-05T02:08:36.836Z,73.86
2023-05-05T02:11:40.169Z,74.71
2023-05-05T02:14:43.628Z,74.09
2023-05-05T02:17:47.160Z,73.94
2023-05-05T02:20:50.091Z,74.25
2023-05-05T02:23:53.267Z,75.63
2023-05-05T02:26:57.460Z,75.26
2023-05-05T02:30:04.941Z,74.87
2023-05-05T02:33:10.735Z,75.70
2023-05-05T02:36:18.305Z,77.63
2023-05-05T02:39:32.684Z,75.83
2023-05-05T02:42:41.671Z,76.31
2023-05-05T02:45:46.700Z,76.10
2023-05-05T02:48:51.164Z,75.65
2023-05-05T02:51:54.379Z,75.40
2023-05-05T02:55:03.956Z,75.33
2023-05-05T02:58:56.782Z,77.44
2023-05-05T03:02:19.118Z,75.99
2023-05-05T03:05:24.202Z,74.55
2023-05-05T03:08:41.481Z,75.37
2023-05-05T03:11:48.233Z,75.83
2023-05-05T03:14:55.301Z,76.80
2023-05-05T03:18:00.390Z,76.69
2023-05-05T03:21:11.599Z,77.02
2023-05-05T03:24:18.952Z,77.44
2023-05-05T03:27:32.662Z,76.17
2023-05-05T03:30:35.651Z,75.67
2023-05-05T03:33:38.769Z,75.72
2023-05-05T03:36:42.111Z,76.63
2023-05-05T03:39:47.954Z,76.97
2023-05-05T03:42:51.023Z,75.62
2023-05-05T03:45:53.877Z,76.56
2023-05-05T03:48:57.462Z,75.74
2023-05-05T03:52:02.011Z,75.70
2023-05-05T03:55:05.667Z,75.49
2023-05-05T03:58:08.394Z,75.44
2023-05-05T04:01:11.309Z,74.75
2023-05-05T04:04:14.078Z,75.11
2023-05-05T04:07:16.886Z,74.72
2023-05-05T04:10:20.090Z,74.31
2023-05-05T04:13:22.857Z,74.32
2023-05-05T04:16:26.470Z,70.56
2023-05-05T04:19:32.618Z,65.96
2023-05-05T04:22:36.653Z,64.94
2023-05-05T04:25:39.497Z,61.48
2023-05-05T04:28:42.601Z,60.29
2023-05-05T04:31:45.763Z,58.15
2023-05-05T04:34:48.705Z,55.97
2023-05-05T04:37:53.811Z,57.60
2023-05-05T04:40:56.886Z,63.73
2023-05-05T04:43:59.690Z,66.31
2023-05-05T04:47:03.263Z,68.44
2023-05-05T04:50:07.899Z,68.39
2023-05-05T04:53:11.559Z,67.52
2023-05-05T04:56:15.151Z,67.94
2023-05-05T04:59:21.046Z,69.46
2023-05-05T05:02:24.185Z,69.55
2023-05-05T05:05:27.251Z,69.82
2023-05-05T05:08:30.123Z,68.37
2023-05-05T05:11:33.015Z,68.82
2023-05-05T05:14:39.938Z,69.64
2023-05-05T05:17:42.726Z,67.44
2023-05-05T05:20:45.520Z,66.05
2023-05-05T05:23:49.456Z,65.43
2023-05-05T05:26:52.450Z,66.16
2023-05-05T05:29:55.555Z,65.07
2023-05-05T05:32:58.393Z,64.70
2023-05-05T05:36:01.162Z,63.40
2023-05-05T05:39:03.937Z,64.81
2023-05-05T05:42:06.762Z,65.08
2023-05-05T05:45:10.268Z,65.29
2023-05-05T05:48:13.687Z,64.36
2023-05-05T05:51:16.887Z,62.86
2023-05-05T05:54:20.030Z,62.25
2023-05-05T05:57:24.917Z,62.31
2023-05-05T06:00:28.125Z,63.93
2023-05-05T06:03:38.055Z,63.96
2023-05-05T06:06:41.436Z,64.02
2023-05-05T06:09:44.132Z,64.70
2023-05-05T06:12:46.829Z,63.21
2023-05-05T06:15:49.761Z,61.23
2023-05-05T06:18:53.533Z,60.80
2023-05-05T06:21:56.590Z,60.29
2023-05-05T06:24:59.386Z,59.96
2023-05-05T06:28:02.506Z,59.08
2023-05-05T06:31:05.341Z,58.48
2023-05-05T06:34:08.084Z,57.07
2023-05-05T06:37:11.307Z,57.89
2023-05-05T06:40:13.970Z,58.28
2023-05-05T06:43:17.661Z,57.62
2023-05-05T06:46:27.615Z,58.28
2023-05-05T06:49:30.480Z,59.14
2023-05-05T06:52:33.242Z,58.18
2023-05-05T06:55:36.057Z,59.29
2023-05-05T06:58:38.956Z,57.05
2023-05-05T07:01:41.752Z,55.88
2023-05-05T07:04:44.627Z,55.99
2023-05-05T07:07:52.911Z,55.93
2023-05-05T07:10:55.881Z,55.96
2023-05-05T07:13:58.980Z,56.49
2023-05-05T07:17:01.777Z,54.55
2023-05-05T07:20:04.769Z,57.05
2023-05-05T07:23:07.978Z,54.47
2023-05-05T07:26:10.837Z,56.07
2023-05-05T07:29:13.805Z,55.31
2023-05-05T07:32:16.735Z,54.82
2023-05-05T07:35:19.607Z,56.20
2023-05-05T07:38:22.412Z,56.48
2023-05-05T07:41:25.069Z,56.63
2023-05-05T07:44:28.373Z,55.93
2023-05-05T07:47:31.581Z,54.31
2023-05-05T07:50:34.214Z,55.32
2023-05-05T07:53:37.387Z,55.20
2023-05-05T07:56:40.302Z,54.06
2023-05-05T07:59:46.037Z,56.21
2023-05-05T08:02:49.202Z,54.48
2023-05-05T08:05:56.324Z,53.67
2023-05-05T08:09:02.946Z,53.87
2023-05-05T08:12:06.161Z,54.26
2023-05-05T08:15:09.484Z,53.62
2023-05-05T08:18:12.836Z,53.19
2023-05-05T08:21:15.611Z,53.27
2023-05-05T08:24:18.738Z,52.80
2023-05-05T08:27:21.381Z,51.48
2023-05-05T08:30:24.538Z,51.24
2023-05-05T08:33:27.454Z,52.52
2023-05-05T08:36:30.258Z,52.19
2023-05-05T08:39:32.907Z,52.44
2023-05-05T08:42:38.487Z,50.46
2023-05-05T08:45:42.783Z,51.59
2023-05-05T08:48:46.303Z,52.97
2023-05-05T08:51:49.232Z,51.56
2023-05-05T08:54:56.604Z,50.85
2023-05-05T08:58:01.568Z,50.83
2023-05-05T09:01:05.069Z,50.67
2023-05-05T09:04:09.274Z,50.57
2023-05-05T09:07:12.308Z,50.05
2023-05-05T09:10:15.146Z,52.41
2023-05-05T09:13:29.913Z,51.58
2023-05-05T09:16:32.546Z,50.69
2023-05-05T09:19:56.727Z,50.49
2023-05-05T09:23:08.391Z,51.13
2023-05-05T09:26:11.253Z,51.64
2023-05-05T09:29:21.276Z,51.23
2023-05-05T09:32:25.446Z,52.00
2023-05-05T09:35:28.359Z,51.58
2023-05-05T09:38:30.991Z,50.60
2023-05-05T09:41:40.786Z,49.93
2023-05-05T09:44:43.432Z,50.63
2023-05-05T09:47:47.270Z,50.46
2023-05-05T09:50:50.280Z,52.54
2023-05-05T09:53:52.994Z,52.24
2023-05-05T09:56:57.222Z,50.08
2023-05-05T10:00:01.504Z,50.54
2023-05-05T10:03:08.489Z,51.72
2023-05-05T10:06:11.143Z,50.06
2023-05-05T10:09:15.288Z,49.64
2023-05-05T10:12:18.348Z,49.20
2023-05-05T10:15:21.644Z,49.78
2023-05-05T10:18:28.754Z,46.46
2023-05-05T10:21:37.125Z,49.00
2023-05-05T10:24:43.759Z,47.67
2023-05-05T10:27:47.062Z,45.57
2023-05-05T10:30:52.246Z,48.54
2023-05-05T10:34:07.116Z,46.85
2023-05-05T10:37:12.461Z,48.07
2023-05-05T10:40:16.981Z,48.32
2023-05-05T10:43:19.880Z,47.39
2023-05-05T10:46:22.769Z,48.08
2023-05-05T10:49:45.228Z,47.46
2023-05-05T10:52:57.116Z,44.25
2023-05-05T10:56:16.851Z,47.42
2023-05-05T10:59:38.377Z,46.41
2023-05-05T11:02:41.837Z,46.57
2023-05-05T11:06:07.962Z,42.93
2023-05-05T11:09:29.526Z,42.38
2023-05-05T11:12:35.528Z,44.06
2023-05-05T11:15:40.165Z,45.29
2023-05-05T11:18:46.053Z,43.95
2023-05-05T11:22:00.555Z,43.38
2023-05-05T11:25:35.924Z,44.53
2023-05-05T11:28:58.308Z,45.33
2023-05-05T11:32:14.718Z,42.77
2023-05-05T11:35:17.729Z,45.90
2023-05-05T11:38:23.842Z,45.17
2023-05-05T11:41:32.682Z,43.47
2023-05-05T11:44:36.224Z,46.40
2023-05-05T11:47:42.298Z,44.59
2023-05-05T11:50:45.524Z,45.26
2023-05-05T11:53:49.296Z,44.10
2023-05-05T11:57:05.405Z,45.94
2023-05-05T12:00:09.409Z,45.82
2023-05-05T12:03:12.844Z,45.05
2023-05-05T12:06:15.713Z,44.83
2023-05-05T12:09:22.827Z,46.13
2023-05-05T12:12:40.437Z,45.39
2023-05-05T12:15:43.496Z,47.02
2023-05-05T12:18:46.240Z,47.08
2023-05-05T12:21:49.107Z,47.74
2023-05-05T12:24:59.380Z,48.11
2023-05-05T12:28:02.218Z,48.48
2023-05-05T12:31:04.939Z,46.62
2023-05-05T12:34:09.659Z,46.48
2023-05-05T12:37:12.657Z,47.72
2023-05-05T12:40:47.547Z,47.12
2023-05-05T12:43:56.871Z,43.22
2023-05-05T12:47:00.199Z,44.13
2023-05-05T12:50:04.120Z,43.02
2023-05-05T12:53:06.845Z,43.56
2023-05-05T12:56:33.442Z,42.78
2023-05-05T12:59:36.854Z,43.98
2023-05-05T13:02:39.715Z,45.14
2023-05-05T13:05:42.560Z,45.70
2023-05-05T13:08:45.357Z,45.15
2023-05-05T13:11:48.095Z,42.00
2023-05-05T13:14:50.880Z,43.19
2023-05-05T13:18:01.731Z,43.51
2023-05-05T13:21:04.718Z,44.04
2023-05-05T13:27:13.087Z,44.59
2023-05-05T13:30:15.863Z,43.96
2023-05-05T13:33:18.627Z,43.80
2023-05-05T13:36:21.405Z,42.71
2023-05-05T13:39:24.305Z,41.76
2023-05-05T13:42:27.054Z,42.22
2023-05-05T13:45:29.766Z,42.22
2023-05-05T13:48:32.739Z,42.44
2023-05-05T13:51:35.598Z,38.14
2023-05-05T13:54:38.723Z,41.18
2023-05-05T13:57:41.402Z,41.39
2023-05-05T14:00:45.058Z,40.40
2023-05-05T14:03:48.074Z,40.59
2023-05-05T14:06:51.070Z,41.43
2023-05-05T14:09:53.885Z,41.00
2023-05-05T14:12:57.142Z,41.77
2023-05-05T14:16:00.208Z,42.27
2023-05-05T14:19:02.918Z,41.28
2023-05-05T14:22:06.139Z,41.86
2023-05-05T14:25:09.365Z,41.41
2023-05-05T14:28:12.148Z,41.51
2023-05-05T14:31:15.187Z,39.97
2023-05-05T14:34:18.147Z,40.50
2023-05-05T14:37:21.153Z,41.67
2023-05-05T14:40:24.076Z,41.24
2023-05-05T14:43:27.251Z,41.48
2023-05-05T14:46:30.316Z,41.63
2023-05-05T14:49:33.202Z,41.46
2023-05-05T14:52:39.706Z,42.01
2023-05-05T14:55:42.435Z,41.97
2023-05-05T14:58:47.308Z,41.91
2023-05-05T15:01:51.531Z,42.02
2023-05-05T15:05:00.056Z,43.30
2023-05-05T15:08:10.252Z,44.49
2023-05-05T15:11:14.194Z,45.21
2023-05-05T15:14:17.069Z,46.37
2023-05-05T15:17:20.182Z,46.20
2023-05-05T15:20:23.221Z,46.57
2023-05-05T15:23:25.961Z,46.97
2023-05-05T15:26:28.902Z,47.53
2023-05-05T15:29:31.741Z,47.71
2023-05-05T15:32:34.893Z,47.95
2023-05-05T15:35:38.014Z,48.62
2023-05-05T15:38:46.526Z,49.02
2023-05-05T15:41:52.322Z,49.26
2023-05-05T15:44:55.033Z,49.80
2023-05-05T15:47:57.753Z,49.85
2023-05-05T15:51:00.388Z,49.45
2023-05-05T15:54:03.071Z,48.72
2023-05-05T15:57:05.904Z,48.32
2023-05-05T16:00:09.794Z,47.84
2023-05-05T16:03:16.399Z,47.33
2023-05-05T16:06:19.138Z,47.11
2023-05-05T16:09:22.188Z,46.93
2023-05-05T16:12:25.545Z,46.87
2023-05-05T16:15:28.413Z,47.58
2023-05-05T16:18:31.194Z,46.96
2023-05-05T16:21:33.922Z,46.85
2023-05-05T16:24:36.910Z,47.14
2023-05-05T16:27:39.735Z,47.76
2023-05-05T16:30:43.589Z,47.84
2023-05-05T16:33:46.766Z,48.12
2023-05-05T16:36:49.800Z,48.29
2023-05-05T16:39:52.764Z,48.76
2023-05-05T16:42:55.449Z,49.03
2023-05-05T16:45:58.392Z,49.99
2023-05-05T16:49:01.255Z,51.28
2023-05-05T16:52:04.138Z,51.01
2023-05-05T16:55:07.597Z,51.17
2023-05-05T16:58:10.573Z,51.27
2023-05-05T17:01:13.579Z,51.45
2023-05-05T17:04:16.354Z,51.85
2023-05-05T17:07:19.117Z,52.10
2023-05-05T17:10:21.936Z,52.38
2023-05-05T17:13:24.741Z,52.24
2023-05-05T17:16:27.426Z,52.72
2023-05-05T17:19:30.289Z,53.92
2023-05-05T17:22:33.218Z,54.09
2023-05-05T17:25:36.298Z,54.13
2023-05-05T17:28:39.063Z,54.78
2023-05-05T17:31:42.448Z,54.84
2023-05-05T17:34:45.208Z,53.78
2023-05-05T17:37:48.124Z,54.59
2023-05-05T17:40:53.777Z,54.83
2023-05-05T17:43:56.711Z,54.92
2023-05-05T17:46:59.875Z,55.43
2023-05-05T17:50:02.742Z,55.47
2023-05-05T17:53:05.505Z,56.20
2023-05-05T17:56:09.041Z,56.66
2023-05-05T17:59:12.096Z,57.07
2023-05-05T18:02:14.826Z,57.05
2023-05-05T18:05:17.675Z,56.92
2023-05-05T18:08:20.555Z,56.99
2023-05-05T18:11:27.833Z,56.87
2023-05-05T18:14:30.750Z,57.03
2023-05-05T18:17:34.152Z,57.26
2023-05-05T18:20:37.045Z,57.14
2023-05-05T18:23:40.643Z,57.81
2023-05-05T18:26:43.759Z,58.03
2023-05-05T18:29:46.676Z,57.71
2023-05-05T18:32:49.688Z,58.16
2023-05-05T18:35:52.682Z,58.44
2023-05-05T18:38:55.717Z,59.15
2023-05-05T18:41:58.771Z,59.27
2023-05-05T18:45:02.030Z,59.38
2023-05-05T18:48:05.437Z,59.43
2023-05-05T18:51:08.744Z,59.89
2023-05-05T18:54:11.757Z,59.80
2023-05-05T18:57:14.580Z,59.52
2023-05-05T19:00:20.384Z,60.35
2023-05-05T19:03:23.696Z,60.41
2023-05-05T19:06:26.492Z,60.50
2023-05-05T19:09:29.466Z,60.93
2023-05-05T19:12:32.809Z,61.54
2023-05-05T19:15:36.275Z,61.47
2023-05-05T19:18:39.391Z,61.05
2023-05-05T19:21:43.621Z,61.62
2023-05-05T19:24:46.635Z,61.27
2023-05-05T19:27:49.674Z,61.67
2023-05-05T19:30:52.781Z,61.88
2023-05-05T19:34:01.553Z,62.96
2023-05-05T19:37:04.546Z,61.88
2023-05-05T19:40:09.109Z,61.80
2023-05-05T19:43:12.202Z,61.44
2023-05-05T19:46:15.127Z,62.11
2023-05-05T19:49:19.623Z,62.14
2023-05-05T19:52:23.002Z,61.78
2023-05-05T19:55:26.092Z,62.28
2023-05-05T19:58:28.886Z,62.50
2023-05-05T20:01:31.963Z,62.65
2023-05-05T20:04:34.825Z,62.44
2023-05-05T20:07:37.505Z,62.68
2023-05-05T20:10:40.578Z,63.19
2023-05-05T20:13:43.594Z,63.56
2023-05-05T20:16:46.303Z,64.29
2023-05-05T20:19:51.237Z,63.85
2023-05-05T20:22:54.230Z,63.88
2023-05-05T20:25:59.484Z,63.76
2023-05-05T20:29:02.252Z,63.75
2023-05-05T20:32:06.199Z,64.48
2023-05-05T20:35:09.660Z,64.49
2023-05-05T20:38:12.414Z,63.98
2023-05-05T20:41:15.890Z,64.46
2023-05-05T20:44:19.627Z,64.57
2023-05-05T20:47:22.639Z,66.11
2023-05-05T20:50:25.623Z,66.38
2023-05-05T20:53:28.502Z,66.83
2023-05-05T20:56:31.296Z,66.64
2023-05-05T20:59:34.007Z,66.55
2023-05-05T21:02:36.928Z,66.70
2023-05-05T21:05:41.373Z,67.41
2023-05-05T21:08:44.203Z,67.05
2023-05-05T21:11:46.982Z,68.01
2023-05-05T21:14:49.818Z,67.72
2023-05-05T21:17:52.615Z,68.46
2023-05-05T21:20:55.484Z,67.86
2023-05-05T21:23:58.292Z,67.47
2023-05-05T21:27:01.314Z,67.95
2023-05-05T21:30:04.250Z,67.91
2023-05-05T21:33:07.060Z,68.33
2023-05-05T21:36:10.076Z,68.17
2023-05-05T21:39:13.042Z,67.73
2023-05-05T21:42:16.458Z,67.89
2023-05-05T21:45:19.353Z,67.56
2023-05-05T21:48:22.164Z,67.62
2023-05-05T21:51:25.330Z,68.04
2023-05-05T21:54:28.027Z,67.47
2023-05-05T21:57:30.982Z,68.98
2023-05-05T22:00:33.834Z,68.97
2023-05-05T22:03:36.847Z,68.44
2023-05-05T22:06:39.691Z,68.52
2023-05-05T22:09:43.455Z,68.88
2023-05-05T22:12:49.398Z,69.29
2023-05-05T22:15:52.388Z,69.76
2023-05-05T22:18:55.272Z,69.05
2023-05-05T22:21:59.154Z,69.83
2023-05-05T22:25:02.677Z,69.45
2023-05-05T22:28:05.614Z,69.81
2023-05-05T22:31:08.605Z,69.93
2023-05-05T22:34:12.160Z,70.04
2023-05-05T22:37:14.914Z,69.85
2023-05-05T22:40:17.934Z,69.78
2023-05-05T22:43:20.856Z,69.92
2023-05-05T22:46:23.819Z,70.00
2023-05-05T22:49:27.951Z,69.61
2023-05-05T22:52:30.945Z,69.62
2023-05-05T22:55:34.390Z,69.28
2023-05-05T22:58:37.101Z,69.37
2023-05-05T23:01:39.975Z,69.85
2023-05-05T23:04:45.182Z,69.84
2023-05-05T23:07:48.171Z,69.91
2023-05-05T23:10:51.172Z,70.09
2023-05-05T23:13:54.562Z,69.71
2023-05-05T23:16:57.358Z,71.05
2023-05-05T23:20:00.131Z,70.66
2023-05-05T23:23:02.841Z,71.40
2023-05-05T23:26:05.589Z,70.83
2023-05-05T23:29:08.431Z,70.08
2023-05-05T23:32:11.210Z,70.47
2023-05-05T23:35:13.994Z,70.67
2023-05-05T23:38:16.769Z,70.92
2023-05-05T23:41:19.781Z,71.64
2023-05-05T23:44:22.781Z,71.73
2023-05-05T23:47:25.515Z,72.96
2023-05-05T23:50:28.300Z,72.62
2023-05-05T23:53:31.208Z,72.02
2023-05-05T23:56:33.900Z,71.65
2023-05-05T23:59:36.614Z,71.39
